Jason Simmons

Olheiro-Chefe - Brentford
22 Fev 2027
Segunda-feira
Processo

Personalidade

Adaptabilidade (1) Ambição (18) Controvérsia (19) Lealdade (11) Pressão (9) Profissionalismo (2) Espírito Esportivo (9) Temperamento (3)

Perfil

Estilo de Treinamento Democrático
Licença Nacional A
Determinação 9
Gestão de Pessoas 8
Motivação 11
Disciplina 7
Satisfação no Trabalho
85%
Fadiga
0%
Função Olheiro-Chefe
Salário 55.5K p/s
Contrato 14.03.2027

Desempenho

Comportamento Bom
Eficácia do Treinamento
30%
Desenvolvimento do Jogador
50%
Prevenção de Lesões
70%
Implementação Tática
30%

Eventos Recentes

Participou de uma reunião de recrutamento agora
Participou de uma reunião de recrutamento agora
Recomendou um alvo de transferência agora
Recomendou um alvo de transferência agora
Negociação de contrato iniciada agora
Negociação de contrato iniciada agora
Negociação de contrato iniciada agora
Negociação de contrato iniciada agora

Monitorando agora

130
Jogador Clube Status Habilidade Confiança Observado Última observação Último voto
Alex Tóth Bournemouth Ativo 120 / 120 40% 2 26.01.2027 -
Yacine Adli Al-Shabab Ativo 147 / 136 40% 1 26.01.2027 -
Riyad Idrissi Cagliari Perdido 130 / 134 40% 1 26.01.2027 -
Iván Martín Racing Club Relatório pronto 155 / 151 66% 3 25.01.2027 Aprovar
Ardon Jashari AC Milan Ativo 140 / 133 40% 1 25.01.2027 -
Esequiel Barco Spartak Moscow Ativo 140 / 129 40% 1 25.01.2027 -
Kota Tawaratsumida FC Tokyo Ativo 130 / 138 40% 1 19.01.2027 -
Máximo Perrone Como Ativo 150 / 150 40% 1 19.01.2027 -
Rhian Brewster Derby County Relatório pronto 125 / 114 69% 1 18.01.2027 -
Callum Doyle Wrexham Relatório pronto 128 / 131 69% 1 07.01.2027 -
Stanislav Agkatsev Krasnodar Perdido 132 / 133 66% 1 01.01.2027 -
Mao Hosoya Corinthians Relatório pronto 134 / 135 67% 1 01.01.2027 -
Luiz Henrique Zenit Relatório pronto 142 / 143 68% 1 01.01.2027 Aprovar
Alan Velasco Boca Juniors Ativo 130 / 124 40% 2 31.12.2026 -
Lewis McCann Fleetwood Town Ativo 103 / 104 40% 1 31.12.2026 -
Vitinha Genoa Ativo 140 / 139 40% 1 31.12.2026 -
Ignacio Giacinti Patronato Ativo 96 / 102 40% 1 30.12.2026 -
Will Lankshear Middlesbrough Ativo 123 / 124 40% 16 29.12.2026 -
Luciano Gondou CSKA Moscow Ativo 125 / 134 40% 2 29.12.2026 -
Carlos Espí Real Madrid Ativo 116 / 127 40% 2 29.12.2026 -
Yegor Golenkov Rostov Ativo 118 / 121 40% 3 29.12.2026 -
Maksym Voitikhovskyi Bukovyna Ativo 92 / 103 40% 1 29.12.2026 -
Thiago Luppi Ferro Carril Oeste Ativo 77 / 101 40% 1 28.12.2026 -
Remy Rees-Dottin Bournemouth Ativo 88 / 99 40% 1 26.12.2026 -
Donnell McNeilly Nottingham Forest Ativo 116 / 107 40% 5 25.12.2026 -
Arkaitz Mariezkurrena Real Sociedad Ativo 108 / 128 40% 4 24.12.2026 -
Marezi Portsmouth Ativo 114 / 116 40% 4 24.12.2026 -
Jack Vale Alcione Milano Ativo 89 / 99 40% 1 24.12.2026 -
Rumarn Burrell Queens Park Rangers Ativo 118 / 121 40% 3 22.12.2026 -
Brayan Gil Baltika Ativo 116 / 126 40% 1 22.12.2026 -
Ricardo Solbes Unión de Santa Fe Ativo 101 / 113 40% 5 20.12.2026 -
Bautista La Licata Belgrano Ativo 85 / 86 40% 1 18.12.2026 -
Matheus Alves CSKA Moscow Ativo 127 / 126 40% 9 17.12.2026 -
Matvii Ponomarenko Dynamo Kyiv Ativo 112 / 119 40% 6 17.12.2026 -
Oscar Cáceres Sportivo Luqueno Ativo 93 / 82 40% 1 14.12.2026 -
Tyrese Campbell Sheffield United Ativo 129 / 128 40% 2 13.12.2026 -
Indiana Vassilev Philadelphia Union Ativo 125 / 115 40% 2 13.12.2026 -
Tobías Ganduglia Independiente Rivadavia Ativo 98 / 96 40% 1 13.12.2026 -
Tadeo Allende Inter Miami CF Ativo 128 / 127 40% 1 13.12.2026 -
Kevin Kelsy Portland Timbers Ativo 105 / 110 40% 2 12.12.2026 -
Luis Fernando Santa Clara Ativo 102 / 97 40% 1 10.12.2026 -
Harry Ashfield Wrexham Ativo 92 / 89 40% 1 09.12.2026 -
Gianluca Banuera Tristán Suárez Ativo 98 / 108 40% 1 09.12.2026 -
Jeong Sang-Bin St. Louis CITY SC Ativo 103 / 104 40% 1 06.12.2026 -
Alex Valencia Santos Laguna Ativo 87 / 80 40% 1 06.12.2026 -
Nikolay Zlatev Cherno More Ativo 103 / 105 40% 2 03.12.2026 -
Pablo Suárez Rentistas Ativo 105 / 108 40% 1 02.12.2026 -
Kévin Denkey FC Cincinnati Ativo 127 / 118 40% 3 01.12.2026 -
Ignacio Russo Tigre Ativo 120 / 121 40% 2 01.12.2026 -
Andrey Domotsev Mashuk Ativo 91 / 80 40% 1 29.11.2026 -
Maksym Uhryniuk Nyva Ativo 83 / 85 40% 1 28.11.2026 -
Talles Magno New York City Ativo 117 / 130 40% 3 27.11.2026 -
Michael Adu-Poku Watford Ativo 78 / 97 40% 1 27.11.2026 -
Vernon Masara Burnley Ativo 80 / 102 40% 1 27.11.2026 -
Louis Munteanu DC United Ativo 131 / 128 40% 1 27.11.2026 -
Kerwin Vargas Charlotte Football Club Ativo 137 / 118 40% 1 26.11.2026 -
Gonzalo Plata Dinamo Moscow Ativo 137 / 126 40% 1 26.11.2026 -
Bassey John Enyimba Ativo 91 / 97 40% 1 24.11.2026 -
Omari Benjamin Everton Ativo 82 / 97 40% 1 24.11.2026 -
Eseosa Sule West Bromwich Albion Ativo 98 / 94 40% 1 20.11.2026 -
Awal Auta Nasarawa United Ativo 88 / 92 40% 1 20.11.2026 -
Josh Coburn Millwall Ativo 118 / 126 40% 1 18.11.2026 -
Richard Koné Queens Park Rangers Ativo 114 / 130 40% 1 18.11.2026 -
Joaquín Rivero Instituto Ativo 78 / 108 40% 1 18.11.2026 -
Brayan León Mamelodi Sundowns Ativo 106 / 112 40% 2 16.11.2026 -
Luis Vázquez Birmingham Ativo 123 / 130 40% 1 16.11.2026 -
Alysson Edward Aston Villa Ativo 126 / 126 40% 1 13.11.2026 -
Hassan Beja AFC Leopards Ativo 83 / 93 40% 1 11.11.2026 -
Jerónimo Russo Newell's Old Boys Ativo 91 / 91 40% 2 10.11.2026 -
Josh Sargent Toronto FC Ativo 126 / 125 40% 1 09.11.2026 -
Tomás Chancalay Minnesota United FC Ativo 115 / 114 40% 1 09.11.2026 -
Keyrol Figueroa Zwolle Ativo 80 / 98 40% 1 04.11.2026 -
Chris Rigg Sunderland Ativo 140 / 130 40% 3 03.11.2026 Observar
Mohamadou Kanté West Ham United Ativo 106 / 126 40% 1 03.11.2026 -
Bitello Dinamo Moscow Ativo 133 / 139 40% 1 03.11.2026 -
Víctor Machado Independiente Rivadavia Ativo 93 / 100 40% 1 02.11.2026 -
Bautista Fernández Temperley Ativo 73 / 101 40% 1 02.11.2026 -
Mateja Bubanj Admira Wacker Ativo 95 / 101 40% 1 02.11.2026 -
Leandro Córdoba Racing Ativo 92 / 102 40% 2 31.10.2026 -
Matías Batule Mitre Ativo 91 / 93 40% 1 30.10.2026 -
Hernán Taborda Talleres Ativo 81 / 87 40% 1 26.10.2026 -
Ezequiel Gerez Chacarita Juniors Ativo 96 / 83 40% 1 26.10.2026 -
Ajay Matthews Millwall Ativo 97 / 107 40% 2 25.10.2026 -
Fletcher Boyd Aston Villa Ativo 92 / 92 40% 1 25.10.2026 -
Furkan Dursun Thun Ativo 106 / 110 40% 1 24.10.2026 -
Emmanuel Gono AIK Ativo 91 / 97 40% 1 09.10.2026 -
Ollie Scarles West Ham United Ativo 123 / 130 40% 2 08.10.2026 -
Lautaro Díaz San Martín Ativo 93 / 92 40% 1 08.10.2026 -
Emirhan Başyiğit Sivasspor Ativo 107 / 116 40% 1 08.10.2026 -
Kyriani Sabbe Club Brugge Ativo 115 / 128 40% 2 06.10.2026 -
Facundo Montiel Colegiales Ativo 104 / 90 40% 2 06.10.2026 -
Thiago Ocampo Nueva Chicago Ativo 79 / 95 40% 1 02.10.2026 -
Luke Baartman Chippa United Ativo 100 / 96 40% 2 29.09.2026 -
Abubakar Garba Nasarawa United Ativo 82 / 93 40% 1 29.09.2026 -
Matías Cantero All Boys Ativo 82 / 97 40% 1 29.09.2026 -
Marko Brkić NK Krka Ativo 96 / 96 40% 1 28.09.2026 -
Ricky Louis FC Dallas Ativo 79 / 80 40% 1 25.09.2026 -
Yoshan Valois Lanús Ativo 129 / 127 40% 2 21.09.2026 -
Luis Palacios Tigres Ativo 100 / 93 40% 1 21.09.2026 -
Simphiwe Selepe Orlando Pirates Ativo 104 / 108 40% 1 20.09.2026 -
Archie Goodwin Charlotte Football Club Ativo 92 / 96 40% 1 19.09.2026 -
Dylan Gorosito Boca Juniors Ativo 96 / 102 40% 1 17.09.2026 -
Julian Hall New York Red Bulls Ativo 87 / 99 40% 2 16.09.2026 -
Matthew Litherland Blackburn Rovers Ativo 105 / 120 40% 1 15.09.2026 -
Stuart Hawkins Seattle Sounders Ativo 90 / 120 40% 1 15.09.2026 -
Tomás Romero Unión de Santa Fe Ativo 94 / 92 40% 1 14.09.2026 -
Facundo Rodríguez Talleres Ativo 98 / 101 40% 1 09.09.2026 -
Mateus Mané Manchester United Ativo 120 / 134 40% 1 09.09.2026 -
Alan Cisnero San Martín Ativo 89 / 112 40% 1 07.09.2026 -
Vakhtang Salia Newcastle United Ativo 99 / 91 40% 1 07.09.2026 -
Joaquin Seys Club Brugge Ativo 131 / 137 40% 1 06.09.2026 -
Mbekezeli Mbokazi Chicago Fire Ativo 129 / 113 40% 1 06.09.2026 -
Tobías Correa Uruguay Montevideo Ativo 84 / 108 40% 1 04.09.2026 -
Sergio Quintero La Equidad Ativo 143 / 141 40% 1 04.09.2026 -
Jaydee Canvot Crystal Palace Ativo 122 / 143 40% 1 03.09.2026 -
Nahuel Herrera Penarol Ativo 118 / 119 40% 1 02.09.2026 -
Nacer Tielemans Mouscron Ativo 138 / 142 40% 1 01.09.2026 -
Kai Andrews Coventry City Ativo 100 / 109 40% 1 01.09.2026 -
Eliás Montiel Pachuca Ativo 114 / 140 40% 1 31.08.2026 -
Mustapha Jawad Kano Pillars Ativo 89 / 94 40% 1 31.08.2026 -
Kieran Chandler Minnesota United FC Ativo 93 / 108 40% 1 31.08.2026 -
Santiago Fernández Talleres Ativo 122 / 112 40% 1 15.08.2026 -
Morgan Zwane Platinum Stars Ativo 110 / 110 40% 1 15.08.2026 -
Mauricio Amaro Atlanta United FC Ativo 122 / 116 40% 1 15.08.2026 -
Sergio Oregel Chicago Fire Ativo 118 / 102 40% 1 13.08.2026 -
Emmanuel Mathias Ikorodu City Ativo 86 / 92 40% 1 13.08.2026 -
Ezekiel Kwame Alladoh Philadelphia Union Ativo 100 / 127 40% 1 06.08.2026 -
Mohammed Sofo New York Red Bulls Ativo 96 / 111 40% 1 04.08.2026 -
Rayan Bournemouth Ativo 123 / 148 40% 1 04.08.2026 -
Jere Vrcić Birkirkara Ativo 82 / 85 40% 1 04.08.2026 -